Terminal Aerodrome Forecast
Issued by NWS

Home | Current Version | Previous Version | Text Only | Print | Product List | Glossary On
Versions: 1 2 3 4 5 6 7 8 9 10 11 12
000
FTUS45 KPSR 251128
TAFBLH
TAF
KBLH 251128Z 2512/2612 22006KT P6SM OVC250
     FM252000 26013G20KT P6SM SCT150
     FM260700 28005KT P6SM SKC=

USA.gov is the U.S. government's official web portal to all federal, state and local government web resources and services.